Time;durP1;ratioP1;P1;durP2;ratioP2;P2;SDS_P1;SDS_P2;PMS_P1;PMS_P2;Temp;Humidity;BMP_temperature;BMP_pressure;BME280_temperature;BME280_humidity;BME280_pressure;Samples;Min_cycle;Max_cycle;Signal;HPM_P1;HPM_P2
2022/06/02 00:01:33;;;;;;;0.10;0.10;;;;;;;21.41;43.12;101520.31;5128472;27;20070;-35
2022/06/02 00:04:30;;;;;;;0.10;0.10;;;;;;;21.41;43.09;101528.63;5127581;27;20040;-33
2022/06/02 00:07:18;;;;;;;0.10;0.10;;;;;;;21.41;43.18;101531.41;5126989;27;20093;-35
2022/06/02 00:09:48;;;;;;;;;;;;;;;21.41;43.29;101527.81;5121047;27;20464;-33
2022/06/02 00:12:24;;;;;;;0.10;0.10;;;;;;;21.40;43.22;101524.22;5144728;27;20002;-36
2022/06/02 00:14:56;;;;;;;0.10;0.10;;;;;;;21.40;43.20;101523.38;5144703;27;20072;-33
2022/06/02 00:17:46;;;;;;;0.10;0.10;;;;;;;21.40;43.35;101528.94;5141793;27;20126;-35
2022/06/02 00:20:38;;;;;;;0.10;0.10;;;;;;;21.39;43.35;101528.09;5128695;27;20074;-35
2022/06/02 00:23:38;;;;;;;0.10;0.10;;;;;;;21.38;43.12;101533.94;5128051;27;20664;-35
2022/06/02 00:31:59;;;;;;;0.10;0.10;;;;;;;21.38;43.27;101534.75;5171496;27;20209;-32
2022/06/02 00:34:41;;;;;;;;;;;;;;;21.40;43.20;101540.00;5139647;27;20072;-35
2022/06/02 00:37:31;;;;;;;0.10;0.10;;;;;;;21.37;43.37;101541.38;5144741;27;20014;-33
2022/06/02 00:39:57;;;;;;;0.20;0.20;;;;;;;21.38;43.24;101536.72;5119393;27;20100;-34
2022/06/02 00:42:29;;;;;;;0.10;0.10;;;;;;;21.37;43.20;101538.63;5143972;27;20465;-32
2022/06/02 00:45:04;;;;;;;0.10;0.10;;;;;;;21.37;43.19;101535.03;5143173;27;20153;-35
2022/06/02 00:47:51;;;;;;;0.10;0.10;;;;;;;21.37;43.19;101537.78;5139745;27;20078;-35
2022/06/02 00:50:57;;;;;;;0.10;0.10;;;;;;;21.37;43.27;101538.63;5132396;27;20500;-36
2022/06/02 00:53:34;;;;;;;0.10;0.10;;;;;;;21.36;43.20;101545.28;5118017;27;20525;-32
2022/06/02 00:59:12;;;;;;;0.10;0.10;;;;;;;21.37;43.09;101543.34;5105527;27;20078;-31
2022/06/02 01:01:38;;;;;;;0.10;0.10;;;;;;;21.36;43.27;101539.75;5141553;27;20050;-34
2022/06/02 01:04:08;;;;;;;0.10;0.10;;;;;;;21.36;43.26;101552.75;5119984;27;20133;-32
2022/06/02 01:07:14;;;;;;;0.10;0.10;;;;;;;21.36;43.18;101550.00;5128182;27;20523;-33
2022/06/02 01:10:08;;;;;;;0.10;0.10;;;;;;;21.35;43.28;101551.94;5133966;27;20086;-33
2022/06/02 01:15:47;;;;;;;0.10;0.10;;;;;;;21.34;43.28;101553.06;5167426;27;20538;-33
2022/06/02 01:18:32;;;;;;;0.10;0.10;;;;;;;21.34;43.28;101561.38;5143906;27;20054;-34
2022/06/02 01:21:33;;;;;;;0.10;0.10;;;;;;;21.34;43.13;101560.53;5163269;27;20167;-36
2022/06/02 01:24:20;;;;;;;0.10;0.10;;;;;;;21.34;43.18;101566.09;5149237;27;20046;-34
2022/06/02 01:30:06;;;;;;;0.10;0.10;;;;;;;21.33;43.31;101572.72;5155408;27;20227;-36
2022/06/02 01:32:45;;;;;;;0.10;0.10;;;;;;;21.33;43.34;101581.03;5143180;27;20070;-32
2022/06/02 01:35:22;;;;;;;0.10;0.10;;;;;;;21.32;43.27;101573.81;5159069;27;20130;-33
2022/06/02 01:38:08;;;;;;;0.10;0.10;;;;;;;21.33;43.23;101579.09;5155929;27;21296;-34
2022/06/02 01:41:03;;;;;;;0.10;0.10;;;;;;;21.32;43.22;101577.41;5157476;27;20519;-34
2022/06/02 01:43:40;;;;;;;0.10;0.10;;;;;;;21.32;43.41;101580.19;5141058;27;20081;-35
2022/06/02 01:46:23;;;;;;;0.10;0.10;;;;;;;21.32;43.44;101571.88;5155306;27;20477;-39
2022/06/02 01:49:16;;;;;;;0.10;0.10;;;;;;;21.32;43.41;101577.41;5152224;27;20050;-38
2022/06/02 01:52:10;;;;;;;0.10;0.10;;;;;;;21.32;43.31;101576.59;5142127;27;20125;-39
2022/06/02 01:54:59;;;;;;;0.10;0.10;;;;;;;21.31;43.23;101578.50;5142883;27;20082;-38
2022/06/02 01:57:42;;;;;;;0.10;0.10;;;;;;;21.30;43.24;101577.69;5137421;27;20077;-38
2022/06/02 02:00:12;;;;;;;0.10;0.10;;;;;;;21.31;43.23;101570.19;5137556;27;20171;-38
2022/06/02 02:02:51;;;;;;;0.10;0.10;;;;;;;21.29;43.21;101578.81;5156350;27;20474;-39
2022/06/02 02:05:57;;;;;;;0.10;0.10;;;;;;;21.30;43.36;101583.22;5154718;27;20054;-38
2022/06/02 02:08:35;;;;;;;0.10;0.10;;;;;;;21.29;43.30;101576.03;5127439;27;20481;-38
2022/06/02 02:11:26;;;;;;;0.10;0.10;;;;;;;21.29;43.32;101577.97;5160369;27;20074;-36
2022/06/02 02:14:06;;;;;;;0.10;0.10;;;;;;;21.29;43.33;101577.97;5139388;27;20134;-36
2022/06/02 02:16:54;;;;;;;0.10;0.10;;;;;;;21.29;43.42;101580.75;5153002;27;20480;-38
2022/06/02 02:19:47;;;;;;;0.10;0.10;;;;;;;21.29;43.32;101575.19;5130871;27;20121;-34
2022/06/02 02:22:52;;;;;;;0.10;0.10;;;;;;;21.27;43.42;101581.00;5142847;27;20603;-34
2022/06/02 02:25:54;;;;;;;0.20;0.20;;;;;;;21.28;43.36;101588.19;5130190;27;20137;-34
2022/06/02 02:28:34;;;;;;;0.10;0.10;;;;;;;21.28;43.34;101584.59;5143621;27;20078;-35
2022/06/02 02:31:09;;;;;;;0.10;0.10;;;;;;;21.27;43.40;101582.94;5155008;27;20070;-35
2022/06/02 02:33:53;;;;;;;0.10;0.10;;;;;;;21.27;43.43;101582.94;5153884;27;20043;-36
2022/06/02 02:36:41;;;;;;;0.10;0.10;;;;;;;21.26;43.29;101573.81;5156939;27;20089;-38
2022/06/02 02:39:17;;;;;;;0.10;0.10;;;;;;;21.26;43.36;101573.81;5134580;27;20489;-38
2022/06/02 02:41:56;;;;;;;0.10;0.10;;;;;;;21.27;43.39;101581.00;5122653;27;20074;-34
2022/06/02 02:44:38;;;;;;;0.10;0.10;;;;;;;21.27;43.42;101580.19;5140932;27;20085;-36
2022/06/02 02:47:10;;;;;;;0.10;0.10;;;;;;;21.27;43.29;101578.22;5147129;27;20077;-35
2022/06/02 02:49:44;;;;;;;0.10;0.10;;;;;;;21.26;43.31;101586.84;5140378;27;20491;-37
2022/06/02 02:52:19;;;;;;;0.10;0.10;;;;;;;21.26;43.40;101586.84;5139864;27;20469;-35
2022/06/02 02:55:05;;;;;;;0.10;0.10;;;;;;;21.26;43.39;101581.28;5143745;27;20578;-38
2022/06/02 02:57:53;;;;;;;0.10;0.10;;;;;;;21.25;43.45;101586.00;5118715;27;20446;-36
2022/06/02 03:00:28;;;;;;;0.10;0.10;;;;;;;21.26;43.53;101586.84;5126666;27;20080;-38
2022/06/02 03:03:34;;;;;;;0.13;0.13;;;;;;;21.26;43.44;101595.16;5142133;27;20067;-35
2022/06/02 03:06:15;;;;;;;0.10;0.10;;;;;;;21.24;43.43;101591.81;5116070;27;20078;-34
2022/06/02 03:09:08;;;;;;;0.10;0.10;;;;;;;21.24;43.40;101602.88;5145119;27;20090;-36
2022/06/02 03:11:55;;;;;;;0.10;0.10;;;;;;;21.23;43.54;101607.59;5127969;27;20045;-34
2022/06/02 03:14:51;;;;;;;0.10;0.10;;;;;;;21.25;43.47;101607.34;5141442;27;20126;-35
2022/06/02 03:17:42;;;;;;;0.10;0.10;;;;;;;21.24;43.33;101606.50;5130850;27;20092;-38
2022/06/02 03:20:19;;;;;;;0.10;0.10;;;;;;;21.24;43.30;101609.28;5126646;27;20469;-38
2022/06/02 03:23:04;;;;;;;0.10;0.10;;;;;;;21.25;43.54;101615.66;5143179;27;20078;-37
2022/06/02 03:25:42;;;;;;;0.10;0.10;;;;;;;21.23;43.29;101613.13;5144860;27;20076;-38
2022/06/02 03:28:17;;;;;;;0.10;0.10;;;;;;;21.23;43.26;101618.69;5140055;27;20108;-37
2022/06/02 03:30:52;;;;;;;0.10;0.10;;;;;;;21.23;43.51;101631.69;5138968;27;20137;-36
2022/06/02 03:33:51;;;;;;;0.10;0.10;;;;;;;21.22;43.31;101625.34;5139842;27;20046;-38
2022/06/02 03:36:36;;;;;;;0.10;0.10;;;;;;;21.23;43.46;101627.00;5127246;27;20071;-38
2022/06/02 03:39:07;;;;;;;0.10;0.10;;;;;;;21.23;43.41;101631.69;5137351;27;20081;-35
2022/06/02 03:42:13;;;;;;;0.10;0.10;;;;;;;21.22;43.37;101639.19;5141893;27;20082;-39
2022/06/02 03:44:52;;;;;;;0.10;0.10;;;;;;;21.22;43.47;101635.59;5113992;27;20085;-38
2022/06/02 03:47:35;;;;;;;0.10;0.10;;;;;;;21.21;43.33;101643.06;5139869;27;20077;-38
2022/06/02 03:50:22;;;;;;;;;;;;;;;21.22;43.43;101641.97;5145011;27;20457;-39
2022/06/02 03:53:27;;;;;;;0.10;0.10;;;;;;;21.21;43.36;101642.25;5126258;27;20433;-38
2022/06/02 03:56:11;;;;;;;0.10;0.10;;;;;;;21.20;43.46;101641.41;5119453;27;20461;-38
2022/06/02 03:59:00;;;;;;;0.10;0.10;;;;;;;21.21;43.33;101645.84;5140906;27;20085;-35
2022/06/02 04:01:35;;;;;;;0.10;0.10;;;;;;;21.21;43.52;101645.00;5128130;27;20072;-36
2022/06/02 04:04:41;;;;;;;0.10;0.10;;;;;;;21.19;43.31;101650.81;5119399;28;20035;-36
2022/06/02 04:07:22;;;;;;;0.10;0.10;;;;;;;21.19;43.25;101639.72;5126054;27;20394;-35
2022/06/02 04:09:56;;;;;;;0.10;0.10;;;;;;;21.19;43.49;101650.81;5140781;27;20087;-39
2022/06/02 04:16:13;;;;;;;0.10;0.10;;;;;;;21.19;43.41;101661.91;5115453;27;20344;-37
2022/06/02 04:22:31;;;;;;;0.10;0.10;;;;;;;21.19;43.35;101661.06;5105754;27;20085;-38
2022/06/02 04:28:20;;;;;;;0.10;0.10;;;;;;;21.17;43.43;101666.06;5163541;27;20198;-32
2022/06/02 04:31:06;;;;;;;0.10;0.10;;;;;;;21.18;43.36;101673.25;5138909;27;20078;-34
2022/06/02 04:33:35;;;;;;;0.13;0.13;;;;;;;21.18;43.36;101676.84;5151621;27;21234;-33
2022/06/02 04:36:13;;;;;;;0.10;0.10;;;;;;;21.17;43.35;101669.66;5148616;27;20085;-33
2022/06/02 04:39:02;;;;;;;0.13;0.13;;;;;;;21.17;43.28;101683.50;5151053;27;20039;-36
2022/06/02 04:41:36;;;;;;;0.10;0.10;;;;;;;21.17;43.37;101686.28;5137383;27;20127;-33
2022/06/02 04:47:23;;;;;;;0.10;0.10;;;;;;;21.17;43.46;101696.53;5162868;27;20210;-35
2022/06/02 04:50:28;;;;;;;0.10;0.10;;;;;;;21.16;43.56;101694.88;5145077;27;20255;-34
2022/06/02 04:53:09;;;;;;;0.10;0.10;;;;;;;21.15;43.58;101705.09;5135394;27;20066;-37
2022/06/02 04:58:33;;;;;;;0.10;0.10;;;;;;;21.16;43.27;101701.25;5159470;27;20993;-31
2022/06/02 05:01:06;;;;;;;0.10;0.10;;;;;;;21.15;43.52;101710.63;5164456;27;20043;-31
2022/06/02 05:03:45;;;;;;;0.10;0.10;;;;;;;21.15;43.46;101707.88;5163590;27;20039;-34
2022/06/02 05:06:39;;;;;;;0.10;0.10;;;;;;;21.15;43.35;101707.03;5163873;27;20055;-31
2022/06/02 05:09:14;;;;;;;0.43;0.43;;;;;;;21.07;43.32;101707.59;5141985;27;20133;-36
2022/06/02 05:12:17;;;;;;;0.10;0.10;;;;;;;20.66;43.61;101707.50;5163842;27;20384;-36
2022/06/02 05:14:50;;;;;;;0.10;0.10;;;;;;;20.96;43.56;101704.81;5145872;27;20074;-37
2022/06/02 05:17:56;;;;;;;0.10;0.10;;;;;;;21.10;43.21;101701.50;5160036;27;20141;-38
2022/06/02 05:20:36;;;;;;;0.10;0.10;;;;;;;21.19;43.18;101713.69;5127432;27;20086;-38
2022/06/02 05:23:28;;;;;;;0.10;0.10;;;;;;;21.23;43.36;101707.31;5157719;27;20069;-36
2022/06/02 05:26:16;;;;;;;0.10;0.10;;;;;;;21.30;43.13;101709.84;5141107;27;20074;-35
2022/06/02 05:28:58;;;;;;;0.10;0.10;;;;;;;21.32;43.08;101707.63;5122285;27;20078;-38
2022/06/02 05:32:04;;;;;;;0.10;0.10;;;;;;;21.35;43.08;101709.03;5157480;27;20520;-38
2022/06/02 05:35:09;;;;;;;0.10;0.10;;;;;;;21.34;43.07;101704.63;5138129;27;20769;-36
2022/06/02 05:40:45;;;;;;;0.10;0.10;;;;;;;21.34;43.26;101707.38;5147068;27;20209;-33
2022/06/02 05:43:37;;;;;;;0.10;0.10;;;;;;;21.33;43.14;101714.88;5111683;27;20082;-33
2022/06/02 05:46:13;;;;;;;0.10;0.10;;;;;;;21.35;43.07;101709.03;5085382;27;20057;-37
2022/06/02 05:49:05;;;;;;;0.10;0.10;;;;;;;21.36;42.81;101713.47;5084874;27;20295;-36
2022/06/02 05:52:11;;;;;;;0.10;0.10;;;;;;;21.36;42.95;101713.47;5098120;27;20139;-34
2022/06/02 05:54:46;;;;;;;0.10;0.10;;;;;;;21.36;42.92;101719.00;5084844;27;20131;-33
2022/06/02 05:57:28;;;;;;;0.10;0.10;;;;;;;21.37;42.97;101712.34;5096795;28;20125;-34
2022/06/02 06:00:11;;;;;;;0.10;0.10;;;;;;;21.37;42.87;101715.94;5098236;27;20043;-34
2022/06/02 06:03:04;;;;;;;0.10;0.10;;;;;;;20.99;41.75;101715.34;5108177;27;20067;-34
2022/06/02 06:05:50;;;;;;;0.10;0.10;;;;;;;21.21;42.22;101719.81;5112786;28;20170;-38
2022/06/02 06:08:41;;;;;;;0.10;0.10;;;;;;;21.32;41.95;101717.91;5109309;27;20083;-39
2022/06/02 06:11:31;;;;;;;0.13;0.13;;;;;;;21.34;42.06;101719.28;5113451;28;20101;-36
2022/06/02 06:14:18;;;;;;;0.10;0.10;;;;;;;21.39;42.23;101715.69;5079501;28;20044;-36
2022/06/02 06:16:54;;;;;;;0.10;0.10;;;;;;;21.40;42.21;101722.88;5095188;28;20044;-35
2022/06/02 06:19:48;;;;;;;0.20;0.20;;;;;;;21.40;42.19;101723.72;5110656;28;20467;-38
2022/06/02 06:22:42;;;;;;;0.10;0.10;;;;;;;21.43;42.28;101722.34;5103422;28;20077;-36
2022/06/02 06:25:33;;;;;;;0.10;0.10;;;;;;;21.44;42.24;101732.31;5096592;28;20177;-40
2022/06/02 06:28:19;;;;;;;0.20;0.20;;;;;;;21.45;42.32;101731.19;5095074;28;20109;-36
2022/06/02 06:30:56;;;;;;;0.10;0.10;;;;;;;21.46;42.19;101738.41;5101017;28;20079;-35
2022/06/02 06:33:36;;;;;;;0.10;0.10;;;;;;;21.47;42.33;101740.91;5112670;28;20501;-36
2022/06/02 06:36:26;;;;;;;0.10;0.10;;;;;;;21.47;42.27;101746.44;5113923;28;20126;-37
2022/06/02 06:39:19;;;;;;;0.10;0.10;;;;;;;21.48;42.07;101750.88;5095398;28;20136;-39
2022/06/02 06:42:24;;;;;;;0.10;0.10;;;;;;;21.48;42.07;101753.66;5099519;28;20129;-39
2022/06/02 06:44:53;;;;;;;0.10;0.10;;;;;;;21.48;42.25;101750.06;5089990;28;20472;-39
2022/06/02 06:47:42;;;;;;;0.10;0.10;;;;;;;21.50;42.05;101756.13;5111373;27;20075;-38
2022/06/02 06:50:47;;;;;;;0.10;0.10;;;;;;;21.51;42.05;101746.75;5093807;28;20102;-37
2022/06/02 06:53:53;;;;;;;0.10;0.10;;;;;;;21.42;41.96;101748.41;5079458;28;20625;-39
2022/06/02 06:56:45;;;;;;;0.10;0.10;;;;;;;21.52;41.87;101748.38;5080297;28;20043;-37
2022/06/02 06:59:33;;;;;;;0.10;0.10;;;;;;;21.53;42.06;101747.28;5078701;28;20558;-38
2022/06/02 07:02:01;;;;;;;;;;;;;;;21.55;41.83;101758.94;5081927;28;20513;-39
2022/06/02 07:04:53;;;;;;;0.20;0.20;;;;;;;21.54;41.82;101758.09;5092362;28;19959;-38
2022/06/02 07:07:37;;;;;;;0.10;0.10;;;;;;;21.57;41.82;101766.97;5075907;28;20520;-36
2022/06/02 07:10:28;;;;;;;0.10;0.10;;;;;;;21.57;41.99;101759.47;5089815;28;20075;-39
2022/06/02 07:13:06;;;;;;;0.10;0.10;;;;;;;21.58;41.92;101761.13;5074022;28;20332;-40
2022/06/02 07:18:33;;;;;;;0.20;0.20;;;;;;;21.61;41.77;101776.38;5158453;27;20212;-36
2022/06/02 07:21:39;;;;;;;0.10;0.10;;;;;;;21.60;41.74;101774.72;5127482;27;20046;-33
2022/06/02 07:24:31;;;;;;;0.10;0.10;;;;;;;21.62;41.91;101780.81;5122670;27;20083;-34
2022/06/02 07:30:03;;;;;;;0.10;0.10;;;;;;;21.63;42.13;101779.69;5149978;27;20116;-36
2022/06/02 07:33:09;;;;;;;0.10;0.10;;;;;;;21.63;41.91;101774.16;5110301;27;20539;-38
2022/06/02 07:36:14;;;;;;;0.10;0.10;;;;;;;21.64;42.13;101773.91;5124473;27;20089;-33
2022/06/02 07:39:19;;;;;;;0.10;0.10;;;;;;;21.65;41.94;101777.50;5114379;27;20074;-38
2022/06/02 07:42:02;;;;;;;0.10;0.10;;;;;;;21.65;41.95;101772.78;5109955;27;20393;-38
2022/06/02 07:44:55;;;;;;;0.10;0.10;;;;;;;21.67;41.91;101778.03;5137557;27;20137;-37
2022/06/02 07:47:43;;;;;;;0.10;0.10;;;;;;;21.66;41.96;101768.91;5121945;27;20212;-35
2022/06/02 07:50:19;;;;;;;0.10;0.10;;;;;;;21.67;41.86;101773.31;5129992;27;20178;-38
2022/06/02 07:55:35;;;;;;;0.10;0.10;;;;;;;21.68;41.99;101774.19;5153474;27;20543;-35
2022/06/02 07:58:24;;;;;;;0.10;0.10;;;;;;;21.68;41.91;101775.00;5147356;27;20043;-36
2022/06/02 08:01:02;;;;;;;0.10;0.10;;;;;;;21.68;41.81;101783.31;5138237;27;20145;-34
2022/06/02 08:04:04;;;;;;;0.10;0.10;;;;;;;21.68;41.83;101782.50;5148863;27;21711;-33
2022/06/02 08:06:42;;;;;;;0.10;0.10;;;;;;;21.68;41.84;101783.31;5127366;27;20095;-35
2022/06/02 08:09:33;;;;;;;0.10;0.10;;;;;;;21.68;41.85;101791.63;5144169;27;21278;-33
2022/06/02 08:12:29;;;;;;;0.10;0.10;;;;;;;21.52;41.71;101779.72;5135254;27;20396;-35
2022/06/02 08:15:17;;;;;;;0.10;0.10;;;;;;;21.30;42.30;101781.88;5137496;27;20473;-48
2022/06/02 08:17:49;;;;;;;0.10;0.10;;;;;;;21.47;42.47;101784.44;5148976;27;20437;-36
2022/06/02 08:20:42;;;;;;;0.10;0.10;;;;;;;21.61;41.90;101782.75;5149052;27;20182;-36
2022/06/02 08:23:47;;;;;;;0.10;0.10;;;;;;;21.65;42.00;101785.81;5127112;27;20349;-38
2022/06/02 08:26:16;;;;;;;0.10;0.10;;;;;;;21.66;41.91;101779.97;5112101;27;20513;-37
2022/06/02 08:28:55;;;;;;;0.10;0.10;;;;;;;21.67;41.88;101781.63;5134033;27;20129;-36
2022/06/02 08:31:39;;;;;;;0.10;0.10;;;;;;;21.69;41.71;101784.97;5135024;27;20074;-35
2022/06/02 08:34:14;;;;;;;0.10;0.10;;;;;;;21.70;41.81;101788.59;5130061;27;20050;-37
2022/06/02 08:37:12;;;;;;;0.10;0.10;;;;;;;21.70;42.00;101786.63;5134723;27;20142;-35
2022/06/02 08:39:41;;;;;;;;;;;;;;;21.72;41.81;101787.22;5113541;27;20043;-36
2022/06/02 08:42:34;;;;;;;0.10;0.10;;;;;;;21.73;42.03;101793.59;5136379;27;20023;-34
2022/06/02 08:45:39;;;;;;;0.10;0.10;;;;;;;21.72;41.88;101789.97;5138553;27;20047;-38
2022/06/02 08:48:21;;;;;;;0.10;0.10;;;;;;;21.72;42.00;101786.38;5106957;27;21288;-37
2022/06/02 08:51:02;;;;;;;0.10;0.10;;;;;;;21.73;41.92;101788.03;5119175;27;20126;-34
2022/06/02 08:54:07;;;;;;;0.10;0.10;;;;;;;21.77;41.91;101781.66;5149811;27;20035;-36
2022/06/02 08:57:00;;;;;;;0.10;0.10;;;;;;;21.82;41.92;101771.69;5130449;27;20208;-37
2022/06/02 08:59:49;;;;;;;0.10;0.10;;;;;;;21.79;41.78;101773.88;5130109;27;20146;-39
2022/06/02 09:02:47;;;;;;;0.10;0.10;;;;;;;21.79;41.85;101776.66;5153788;27;20056;-35
2022/06/02 09:05:44;;;;;;;0.10;0.10;;;;;;;21.79;41.92;101775.81;5121267;27;20265;-37
2022/06/02 09:08:36;;;;;;;0.10;0.10;;;;;;;21.81;41.82;101789.44;5105751;27;20137;-39
2022/06/02 09:14:08;;;;;;;0.10;0.10;;;;;;;21.82;41.96;101802.19;5151601;27;20145;-36
2022/06/02 09:17:14;;;;;;;0.10;0.10;;;;;;;21.81;41.87;101801.34;5141255;27;20125;-36
2022/06/02 09:20:09;;;;;;;0.10;0.10;;;;;;;21.83;41.75;101801.06;5114186;27;20195;-33
2022/06/02 09:22:50;;;;;;;0.10;0.10;;;;;;;21.82;41.89;101799.41;5143103;27;20465;-32
2022/06/02 09:25:41;;;;;;;0.10;0.10;;;;;;;21.83;41.69;101801.88;5140465;27;20125;-36
2022/06/02 09:28:25;;;;;;;0.10;0.10;;;;;;;21.83;41.82;101801.06;5132724;27;21110;-35
2022/06/02 09:31:10;;;;;;;0.10;0.10;;;;;;;21.83;41.69;101804.66;5157933;27;20486;-35
2022/06/02 09:33:55;;;;;;;0.10;0.10;;;;;;;21.84;41.85;101799.94;5157235;27;20042;-35
2022/06/02 09:36:48;;;;;;;0.10;0.10;;;;;;;21.84;41.85;101803.53;5132941;27;21112;-37
2022/06/02 09:39:37;;;;;;;0.10;0.10;;;;;;;21.85;41.91;101801.59;5141044;27;20103;-35
2022/06/02 09:42:35;;;;;;;0.10;0.10;;;;;;;21.91;41.82;101793.00;5124679;27;20420;-33
2022/06/02 09:45:21;;;;;;;0.17;0.17;;;;;;;21.92;41.60;101802.16;5115652;27;20545;-38
2022/06/02 09:50:38;;;;;;;0.10;0.10;;;;;;;21.90;41.75;101810.78;5157458;27;20202;-36
2022/06/02 09:53:31;;;;;;;0.10;0.10;;;;;;;21.90;41.72;101798.84;5135779;27;20399;-34
2022/06/02 09:56:07;;;;;;;0.10;0.10;;;;;;;21.91;41.67;101804.09;5133286;27;20062;-37
2022/06/02 09:59:12;;;;;;;0.10;0.10;;;;;;;21.91;41.84;101806.06;5125760;27;20090;-38
2022/06/02 10:01:46;;;;;;;0.10;0.10;;;;;;;21.91;41.69;101803.28;5124658;27;20066;-38
2022/06/02 10:04:41;;;;;;;0.10;0.10;;;;;;;21.91;41.67;101793.00;5145053;27;20431;-37
2022/06/02 10:07:46;;;;;;;0.10;0.10;;;;;;;21.91;41.45;101787.47;5102743;27;20576;-37
2022/06/02 10:10:48;;;;;;;0.10;0.10;;;;;;;21.92;41.68;101793.84;5129977;27;20130;-38
2022/06/02 10:16:35;;;;;;;0.10;0.10;;;;;;;21.88;41.34;101781.63;5161120;27;20541;-32
2022/06/02 10:19:29;;;;;;;0.10;0.10;;;;;;;21.91;41.60;101781.09;5105738;27;20066;-35
2022/06/02 10:22:04;;;;;;;0.10;0.10;;;;;;;21.94;41.54;101783.31;5125766;27;20133;-34
2022/06/02 10:28:05;;;;;;;0.10;0.10;;;;;;;21.94;41.70;101778.59;5157682;27;20193;-36
2022/06/02 10:31:10;;;;;;;0.10;0.10;;;;;;;21.95;41.53;101777.47;5123913;27;20062;-36
2022/06/02 10:37:00;;;;;;;0.10;0.10;;;;;;;21.97;41.49;101778.00;5155068;27;20533;-34
2022/06/02 10:40:05;;;;;;;0.10;0.10;;;;;;;21.96;41.56;101770.00;5142142;27;20473;-37
2022/06/02 10:42:46;;;;;;;0.10;0.10;;;;;;;21.96;41.46;101773.59;5124995;27;20433;-38
2022/06/02 10:45:38;;;;;;;0.10;0.10;;;;;;;21.96;41.50;101768.03;5160047;27;20088;-37
2022/06/02 10:48:44;;;;;;;0.10;0.10;;;;;;;21.98;41.43;101767.78;5134528;27;20096;-37
2022/06/02 10:51:51;;;;;;;0.15;0.15;;;;;;;21.98;41.58;101765.84;5142435;27;20364;-34
2022/06/02 10:54:31;;;;;;;0.10;0.10;;;;;;;21.99;41.50;101766.66;5142608;27;20602;-38
2022/06/02 11:00:36;;;;;;;0.10;0.10;;;;;;;22.00;41.46;101757.22;5158439;27;20121;-34
2022/06/02 11:03:26;;;;;;;0.10;0.10;;;;;;;21.99;41.41;101758.34;5135025;27;20408;-35
2022/06/02 11:06:31;;;;;;;0.10;0.10;;;;;;;22.00;41.49;101760.81;5135370;27;20115;-33
2022/06/02 11:12:04;;;;;;;0.10;0.10;;;;;;;22.01;41.44;101761.66;5147495;27;20202;-37
2022/06/02 11:23:45;;;;;;;0.10;0.10;;;;;;;21.93;40.62;101754.72;5151429;27;20533;-34
2022/06/02 11:32:49;;;;;;;0.10;0.10;;;;;;;22.00;40.75;101737.81;5153547;27;20636;-36
2022/06/02 11:35:41;;;;;;;0.10;0.10;;;;;;;22.00;40.88;101740.59;5138307;27;20073;-36
2022/06/02 11:38:46;;;;;;;0.10;0.10;;;;;;;22.01;40.81;101740.28;5133923;27;20133;-38
2022/06/02 11:41:35;;;;;;;0.10;0.10;;;;;;;22.02;40.87;101732.78;5136387;27;20073;-39
2022/06/02 11:44:12;;;;;;;0.10;0.10;;;;;;;22.02;40.92;101721.69;5157336;27;20074;-35
2022/06/02 11:47:06;;;;;;;0.10;0.10;;;;;;;22.03;40.88;101717.84;5139392;27;20091;-37
2022/06/02 11:49:46;;;;;;;0.10;0.10;;;;;;;22.04;40.84;101725.88;5141980;27;20046;-39
2022/06/02 11:52:43;;;;;;;0.10;0.10;;;;;;;22.04;41.02;101720.31;5155219;27;20433;-38
2022/06/02 11:58:29;;;;;;;0.10;0.10;;;;;;;22.05;41.18;101698.97;5158030;27;21189;-36
2022/06/02 12:01:12;;;;;;;0.10;0.10;;;;;;;22.04;40.95;101703.69;5126466;27;20078;-36
2022/06/02 12:04:04;;;;;;;0.10;0.10;;;;;;;22.04;41.02;101692.59;5141385;27;20446;-38
2022/06/02 12:09:49;;;;;;;0.10;0.10;;;;;;;22.06;41.03;101692.28;5175460;27;20210;-33
2022/06/02 12:15:17;;;;;;;0.10;0.10;;;;;;;22.07;41.05;101690.38;5158829;27;20222;-34
2022/06/02 12:17:59;;;;;;;0.10;0.10;;;;;;;22.07;41.10;101688.44;5154758;27;20445;-39
2022/06/02 12:21:05;;;;;;;0.10;0.10;;;;;;;22.07;41.03;101682.88;5158889;27;20089;-39
2022/06/02 12:23:52;;;;;;;0.10;0.10;;;;;;;22.08;40.92;101686.47;5135181;27;20445;-36
2022/06/02 12:26:57;;;;;;;0.08;0.08;;;;;;;22.07;41.07;101685.66;5154180;27;20138;-39
2022/06/02 12:29:51;;;;;;;0.10;0.10;;;;;;;22.07;40.97;101679.28;5136496;27;20089;-37
2022/06/02 12:32:59;;;;;;;0.10;0.10;;;;;;;22.06;41.15;101675.66;5132219;27;20528;-38
2022/06/02 12:36:04;;;;;;;0.10;0.10;;;;;;;22.07;41.12;101674.56;5137992;27;20129;-38
2022/06/02 12:38:54;;;;;;;0.10;0.10;;;;;;;22.05;41.05;101672.06;5138471;27;20074;-37
2022/06/02 12:41:30;;;;;;;0.10;0.10;;;;;;;22.05;41.08;101671.22;5131997;27;20623;-36
2022/06/02 12:44:22;;;;;;;0.10;0.10;;;;;;;22.06;41.08;101670.09;5152378;27;20488;-34
2022/06/02 12:47:28;;;;;;;0.10;0.10;;;;;;;22.06;41.16;101678.44;5139326;27;20070;-37
2022/06/02 12:50:33;;;;;;;0.10;0.10;;;;;;;22.04;41.16;101669.56;5124604;27;20051;-36
2022/06/02 12:53:24;;;;;;;0.10;0.10;;;;;;;22.04;41.18;101667.63;5133787;27;20129;-37
2022/06/02 12:56:04;;;;;;;0.10;0.10;;;;;;;22.03;41.13;101670.69;5140785;27;20129;-36
2022/06/02 12:58:52;;;;;;;0.10;0.10;;;;;;;22.03;41.25;101673.47;5153543;27;20062;-38
2022/06/02 13:01:42;;;;;;;0.10;0.10;;;;;;;22.02;41.30;101667.09;5150532;27;20070;-38
2022/06/02 13:04:34;;;;;;;0.10;0.10;;;;;;;22.02;41.21;101657.91;5136605;27;20058;-39
2022/06/02 13:07:26;;;;;;;0.15;0.15;;;;;;;22.01;41.21;101656.25;5143796;27;20043;-35
2022/06/02 13:10:31;;;;;;;0.10;0.10;;;;;;;22.00;41.25;101658.19;5136470;27;20093;-37
2022/06/02 13:13:26;;;;;;;0.10;0.10;;;;;;;21.99;41.30;101659.31;5138587;27;20070;-37
2022/06/02 13:16:17;;;;;;;0.10;0.10;;;;;;;21.99;41.30;101644.63;5140995;27;20089;-36
2022/06/02 13:19:11;;;;;;;0.10;0.10;;;;;;;21.98;41.38;101649.34;5148038;27;20129;-36
2022/06/02 13:22:07;;;;;;;0.10;0.10;;;;;;;21.97;41.34;101653.22;5145215;27;20485;-37
2022/06/02 13:27:57;;;;;;;0.10;0.10;;;;;;;21.97;41.35;101644.06;5163978;27;20217;-32
2022/06/02 13:30:50;;;;;;;0.10;0.10;;;;;;;21.96;41.36;101637.69;5138951;27;20043;-34
2022/06/02 13:33:46;;;;;;;0.10;0.10;;;;;;;21.96;41.47;101643.25;5156940;27;20047;-32
2022/06/02 13:36:26;;;;;;;0.10;0.10;;;;;;;21.95;41.36;101647.13;5157741;27;20131;-35
2022/06/02 13:39:19;;;;;;;0.10;0.10;;;;;;;21.93;41.36;101646.56;5159099;27;20077;-32
2022/06/02 13:41:59;;;;;;;0.10;0.10;;;;;;;21.95;41.45;101640.75;5149134;27;20035;-39
2022/06/02 13:45:04;;;;;;;0.10;0.10;;;;;;;21.94;41.46;101641.88;5166759;27;20574;-32
2022/06/02 13:48:10;;;;;;;0.10;0.10;;;;;;;21.93;41.45;101641.03;5146835;27;20103;-38
2022/06/02 13:50:59;;;;;;;0.10;0.10;;;;;;;21.92;41.41;101639.38;5147875;27;20669;-35
2022/06/02 13:57:30;;;;;;;0.10;0.10;;;;;;;21.91;41.36;101646.03;5149911;27;20042;-37
2022/06/02 13:57:43;;;;;;;0.30;0.30;;;;;;;21.92;41.34;101638.53;5150167;27;20084;-36
2022/06/02 14:00:35;;;;;;;0.10;0.10;;;;;;;21.89;41.46;101631.63;5137479;27;20077;-35
2022/06/02 14:06:10;;;;;;;0.10;0.10;;;;;;;21.89;41.47;101628.00;5173778;27;20593;-32
2022/06/02 14:14:48;;;;;;;0.10;0.10;;;;;;;21.87;41.55;101619.16;5165298;27;20201;-36
2022/06/02 14:17:27;;;;;;;0.10;0.10;;;;;;;21.87;41.58;101627.47;5137429;27;20046;-34
2022/06/02 14:23:12;;;;;;;0.10;0.10;;;;;;;21.86;41.54;101634.97;5175278;27;20520;-35
2022/06/02 14:26:02;;;;;;;0.10;0.10;;;;;;;21.83;41.64;101629.97;5146063;27;20070;-34
2022/06/02 14:31:34;;;;;;;0.10;0.10;;;;;;;21.84;41.49;101622.47;5169435;27;20120;-28
2022/06/02 14:34:13;;;;;;;0.10;0.10;;;;;;;21.82;41.43;101611.69;5149288;27;20138;-28
2022/06/02 14:39:44;;;;;;;0.10;0.10;;;;;;;21.81;41.56;101618.34;5164335;27;20198;-35
2022/06/02 14:43:04;;;;;;;0.10;0.10;;;;;;;21.81;41.42;101615.56;5130595;27;20829;-33
2022/06/02 14:45:57;;;;;;;0.10;0.10;;;;;;;21.79;41.38;101613.06;5153141;27;20735;-32
2022/06/02 14:48:40;;;;;;;0.10;0.10;;;;;;;21.79;41.36;101615.00;5146246;27;20069;-32
2022/06/02 14:51:28;;;;;;;0.10;0.10;;;;;;;21.79;41.52;101609.47;5159874;27;20086;-36